sensor_id;sensor_type;location;lat;lon;timestamp;pressure;altitude;pressure_sealevel;temperature;humidity
17054;BME280;8643;48.824;11.422;2023-07-20T00:00:46;96696.22;;;16.95;100.00
17054;BME280;8643;48.824;11.422;2023-07-20T00:03:15;96697.19;;;16.80;100.00
17054;BME280;8643;48.824;11.422;2023-07-20T00:05:46;96688.06;;;16.76;100.00
17054;BME280;8643;48.824;11.422;2023-07-20T00:08:17;96684.78;;;16.63;100.00
17054;BME280;8643;48.824;11.422;2023-07-20T00:10:46;96686.75;;;16.62;100.00
17054;BME280;8643;48.824;11.422;2023-07-20T00:13:14;96683.84;;;16.52;100.00
17054;BME280;8643;48.824;11.422;2023-07-20T00:15:45;96679.03;;;16.45;100.00
17054;BME280;8643;48.824;11.422;2023-07-20T00:18:14;96679.75;;;16.38;100.00
17054;BME280;8643;48.824;11.422;2023-07-20T00:20:42;96678.81;;;16.27;100.00
17054;BME280;8643;48.824;11.422;2023-07-20T00:23:11;96679.41;;;16.13;100.00
17054;BME280;8643;48.824;11.422;2023-07-20T00:25:42;96690.00;;;16.07;100.00
17054;BME280;8643;48.824;11.422;2023-07-20T00:28:11;96681.16;;;15.94;100.00
17054;BME280;8643;48.824;11.422;2023-07-20T00:30:41;96680.75;;;15.92;100.00
17054;BME280;8643;48.824;11.422;2023-07-20T00:33:11;96680.75;;;15.92;100.00
17054;BME280;8643;48.824;11.422;2023-07-20T00:35:40;96687.28;;;16.11;100.00
17054;BME280;8643;48.824;11.422;2023-07-20T00:38:09;96682.63;;;16.15;100.00
17054;BME280;8643;48.824;11.422;2023-07-20T00:40:39;96682.47;;;16.04;100.00
17054;BME280;8643;48.824;11.422;2023-07-20T00:43:09;96671.88;;;15.80;100.00
17054;BME280;8643;48.824;11.422;2023-07-20T00:45:38;96679.50;;;15.63;100.00
17054;BME280;8643;48.824;11.422;2023-07-20T00:48:07;96680.44;;;15.48;100.00
17054;BME280;8643;48.824;11.422;2023-07-20T00:50:36;96681.06;;;15.37;100.00
17054;BME280;8643;48.824;11.422;2023-07-20T00:53:05;96692.41;;;15.32;100.00
17054;BME280;8643;48.824;11.422;2023-07-20T00:55:35;96689.16;;;15.27;100.00
17054;BME280;8643;48.824;11.422;2023-07-20T00:58:04;96682.78;;;15.23;100.00
17054;BME280;8643;48.824;11.422;2023-07-20T01:00:36;96688.00;;;15.05;100.00
17054;BME280;8643;48.824;11.422;2023-07-20T01:03:04;96683.69;;;15.07;100.00
17054;BME280;8643;48.824;11.422;2023-07-20T01:05:47;96686.34;;;15.00;100.00
17054;BME280;8643;48.824;11.422;2023-07-20T01:08:27;96688.53;;;14.91;100.00
17054;BME280;8643;48.824;11.422;2023-07-20T01:11:12;96697.69;;;14.95;100.00
17054;BME280;8643;48.824;11.422;2023-07-20T01:13:44;96698.22;;;15.04;100.00
17054;BME280;8643;48.824;11.422;2023-07-20T01:16:14;96696.88;;;14.94;100.00
17054;BME280;8643;48.824;11.422;2023-07-20T01:18:43;96696.50;;;14.96;100.00
17054;BME280;8643;48.824;11.422;2023-07-20T01:21:22;96693.19;;;14.87;100.00
17054;BME280;8643;48.824;11.422;2023-07-20T01:24:16;96684.13;;;14.86;100.00
17054;BME280;8643;48.824;11.422;2023-07-20T01:30:25;96683.28;;;14.82;100.00
17054;BME280;8643;48.824;11.422;2023-07-20T01:33:01;96692.31;;;14.82;100.00
17054;BME280;8643;48.824;11.422;2023-07-20T01:35:31;96687.47;;;14.76;100.00
17054;BME280;8643;48.824;11.422;2023-07-20T01:38:01;96677.47;;;14.68;100.00
17054;BME280;8643;48.824;11.422;2023-07-20T01:40:31;96685.31;;;14.65;100.00
17054;BME280;8643;48.824;11.422;2023-07-20T01:43:02;96675.75;;;14.40;100.00
17054;BME280;8643;48.824;11.422;2023-07-20T01:45:30;96673.13;;;14.27;100.00
17054;BME280;8643;48.824;11.422;2023-07-20T01:48:00;96682.63;;;14.30;100.00
17054;BME280;8643;48.824;11.422;2023-07-20T01:50:29;96693.88;;;14.41;100.00
17054;BME280;8643;48.824;11.422;2023-07-20T01:52:59;96690.00;;;14.45;100.00
17054;BME280;8643;48.824;11.422;2023-07-20T01:55:27;96686.03;;;14.43;100.00
17054;BME280;8643;48.824;11.422;2023-07-20T01:57:56;96690.94;;;14.53;100.00
17054;BME280;8643;48.824;11.422;2023-07-20T02:00:26;96705.16;;;14.75;100.00
17054;BME280;8643;48.824;11.422;2023-07-20T02:02:55;96698.06;;;15.16;100.00
17054;BME280;8643;48.824;11.422;2023-07-20T02:05:25;96704.00;;;15.68;100.00
17054;BME280;8643;48.824;11.422;2023-07-20T02:07:54;96692.06;;;16.14;100.00
17054;BME280;8643;48.824;11.422;2023-07-20T02:10:22;96698.38;;;16.45;100.00
17054;BME280;8643;48.824;11.422;2023-07-20T02:12:51;96692.88;;;16.82;100.00
17054;BME280;8643;48.824;11.422;2023-07-20T02:15:19;96700.34;;;17.16;100.00
17054;BME280;8643;48.824;11.422;2023-07-20T02:17:48;96693.94;;;17.49;100.00
17054;BME280;8643;48.824;11.422;2023-07-20T02:20:16;96696.09;;;17.74;100.00
17054;BME280;8643;48.824;11.422;2023-07-20T02:22:47;96692.72;;;18.02;100.00
17054;BME280;8643;48.824;11.422;2023-07-20T02:25:16;96697.97;;;18.22;98.58
17054;BME280;8643;48.824;11.422;2023-07-20T02:27:44;96695.28;;;18.32;96.66
17054;BME280;8643;48.824;11.422;2023-07-20T02:30:13;96699.59;;;18.30;95.56
17054;BME280;8643;48.824;11.422;2023-07-20T02:32:43;96700.34;;;18.23;95.06
17054;BME280;8643;48.824;11.422;2023-07-20T02:35:13;96696.44;;;18.31;94.20
17054;BME280;8643;48.824;11.422;2023-07-20T02:37:42;96693.25;;;18.26;94.16
17054;BME280;8643;48.824;11.422;2023-07-20T02:40:12;96708.34;;;18.36;93.06
17054;BME280;8643;48.824;11.422;2023-07-20T02:42:41;96709.91;;;18.29;92.16
17054;BME280;8643;48.824;11.422;2023-07-20T02:45:10;96714.19;;;18.20;92.60
17054;BME280;8643;48.824;11.422;2023-07-20T02:47:38;96708.28;;;18.21;93.11
17054;BME280;8643;48.824;11.422;2023-07-20T02:50:08;96707.81;;;18.08;92.65
17054;BME280;8643;48.824;11.422;2023-07-20T02:52:37;96707.81;;;18.08;93.73
17054;BME280;8643;48.824;11.422;2023-07-20T02:55:06;96711.84;;;18.22;94.66
17054;BME280;8643;48.824;11.422;2023-07-20T02:57:36;96707.50;;;18.28;92.63
17054;BME280;8643;48.824;11.422;2023-07-20T03:00:06;96712.19;;;18.17;92.14
17054;BME280;8643;48.824;11.422;2023-07-20T03:02:35;96707.03;;;18.08;94.35
17054;BME280;8643;48.824;11.422;2023-07-20T03:05:05;96709.72;;;17.97;93.44
17054;BME280;8643;48.824;11.422;2023-07-20T03:07:34;96711.16;;;17.76;92.29
17054;BME280;8643;48.824;11.422;2023-07-20T03:10:04;96707.03;;;17.56;92.87
17054;BME280;8643;48.824;11.422;2023-07-20T03:12:35;96716.03;;;17.46;94.16
17054;BME280;8643;48.824;11.422;2023-07-20T03:15:05;96705.59;;;17.28;94.15
17054;BME280;8643;48.824;11.422;2023-07-20T03:17:35;96713.06;;;17.24;94.81
17054;BME280;8643;48.824;11.422;2023-07-20T03:20:06;96710.28;;;17.24;94.61
17054;BME280;8643;48.824;11.422;2023-07-20T03:22:38;96716.34;;;17.37;95.27
17054;BME280;8643;48.824;11.422;2023-07-20T03:25:08;96719.16;;;17.40;95.25
17054;BME280;8643;48.824;11.422;2023-07-20T03:27:37;96723.63;;;17.56;94.70
17054;BME280;8643;48.824;11.422;2023-07-20T03:30:07;96729.31;;;17.74;93.47
17054;BME280;8643;48.824;11.422;2023-07-20T03:32:38;96726.81;;;17.58;91.32
17054;BME280;8643;48.824;11.422;2023-07-20T03:35:07;96737.97;;;17.69;91.21
17054;BME280;8643;48.824;11.422;2023-07-20T03:37:36;96736.06;;;17.76;91.02
17054;BME280;8643;48.824;11.422;2023-07-20T03:40:06;96732.13;;;17.81;91.22
17054;BME280;8643;48.824;11.422;2023-07-20T03:42:36;96730.25;;;17.92;90.84
17054;BME280;8643;48.824;11.422;2023-07-20T03:45:07;96728.53;;;17.77;89.67
17054;BME280;8643;48.824;11.422;2023-07-20T03:47:35;96728.97;;;17.83;89.52
17054;BME280;8643;48.824;11.422;2023-07-20T03:50:05;96735.03;;;17.95;88.63
17054;BME280;8643;48.824;11.422;2023-07-20T03:52:34;96741.66;;;17.84;87.87
17054;BME280;8643;48.824;11.422;2023-07-20T03:55:03;96734.56;;;17.86;87.43
17054;BME280;8643;48.824;11.422;2023-07-20T03:57:34;96733.09;;;17.55;88.66
17054;BME280;8643;48.824;11.422;2023-07-20T04:00:05;96740.34;;;17.67;88.67
17054;BME280;8643;48.824;11.422;2023-07-20T04:02:38;96750.28;;;17.75;88.22
17054;BME280;8643;48.824;11.422;2023-07-20T04:05:07;96760.16;;;17.72;88.35
17054;BME280;8643;48.824;11.422;2023-07-20T04:07:36;96752.56;;;17.62;86.66
17054;BME280;8643;48.824;11.422;2023-07-20T04:10:05;96752.41;;;17.44;88.70
17054;BME280;8643;48.824;11.422;2023-07-20T04:12:35;96757.47;;;17.38;89.12
17054;BME280;8643;48.824;11.422;2023-07-20T04:15:06;96758.28;;;17.39;88.00
17054;BME280;8643;48.824;11.422;2023-07-20T04:17:35;96761.50;;;17.45;88.83
17054;BME280;8643;48.824;11.422;2023-07-20T04:20:05;96765.16;;;17.56;87.82
17054;BME280;8643;48.824;11.422;2023-07-20T04:22:34;96765.94;;;17.56;85.55
17054;BME280;8643;48.824;11.422;2023-07-20T04:25:04;96758.19;;;17.28;84.75
17054;BME280;8643;48.824;11.422;2023-07-20T04:27:33;96762.75;;;17.10;86.71
17054;BME280;8643;48.824;11.422;2023-07-20T04:30:06;96767.06;;;17.07;86.59
17054;BME280;8643;48.824;11.422;2023-07-20T04:32:35;96771.81;;;17.10;86.98
17054;BME280;8643;48.824;11.422;2023-07-20T04:35:06;96768.09;;;17.29;86.96
17054;BME280;8643;48.824;11.422;2023-07-20T04:37:38;96762.19;;;17.34;86.79
17054;BME280;8643;48.824;11.422;2023-07-20T04:40:17;96764.97;;;17.34;87.59
17054;BME280;8643;48.824;11.422;2023-07-20T04:42:46;96770.50;;;17.34;85.13
17054;BME280;8643;48.824;11.422;2023-07-20T04:45:15;96776.44;;;17.36;85.80
17054;BME280;8643;48.824;11.422;2023-07-20T04:47:46;96772.56;;;17.45;83.94
17054;BME280;8643;48.824;11.422;2023-07-20T04:50:15;96775.34;;;17.45;84.75
17054;BME280;8643;48.824;11.422;2023-07-20T04:52:44;96780.38;;;17.35;83.18
17054;BME280;8643;48.824;11.422;2023-07-20T04:55:17;96789.34;;;17.63;86.75
17054;BME280;8643;48.824;11.422;2023-07-20T04:57:46;96794.47;;;17.61;85.01
17054;BME280;8643;48.824;11.422;2023-07-20T05:00:18;96795.19;;;17.54;84.53
17054;BME280;8643;48.824;11.422;2023-07-20T05:02:46;96796.75;;;17.51;83.87
17054;BME280;8643;48.824;11.422;2023-07-20T05:05:16;96803.28;;;17.73;85.54
17054;BME280;8643;48.824;11.422;2023-07-20T05:07:45;96802.25;;;17.89;85.44
17054;BME280;8643;48.824;11.422;2023-07-20T05:10:13;96797.81;;;17.84;81.50
17054;BME280;8643;48.824;11.422;2023-07-20T05:12:42;96798.50;;;17.70;83.74
17054;BME280;8643;48.824;11.422;2023-07-20T05:15:11;96798.09;;;17.68;81.88
17054;BME280;8643;48.824;11.422;2023-07-20T05:17:42;96802.81;;;17.64;80.67
17054;BME280;8643;48.824;11.422;2023-07-20T05:20:11;96796.50;;;17.67;80.36
17054;BME280;8643;48.824;11.422;2023-07-20T05:22:40;96805.06;;;17.55;79.14
17054;BME280;8643;48.824;11.422;2023-07-20T05:25:10;96807.47;;;17.56;78.77
17054;BME280;8643;48.824;11.422;2023-07-20T05:27:40;96809.56;;;17.67;80.66
17054;BME280;8643;48.824;11.422;2023-07-20T05:30:09;96810.50;;;17.85;78.21
17054;BME280;8643;48.824;11.422;2023-07-20T05:32:38;96816.09;;;17.89;78.50
17054;BME280;8643;48.824;11.422;2023-07-20T05:35:09;96800.97;;;17.83;78.16
17054;BME280;8643;48.824;11.422;2023-07-20T05:37:38;96804.59;;;17.87;77.62
17054;BME280;8643;48.824;11.422;2023-07-20T05:40:08;96803.25;;;18.14;79.26
17054;BME280;8643;48.824;11.422;2023-07-20T05:42:39;96805.00;;;18.41;75.61
17054;BME280;8643;48.824;11.422;2023-07-20T05:45:08;96803.44;;;18.47;76.33
17054;BME280;8643;48.824;11.422;2023-07-20T05:47:37;96804.22;;;18.44;75.32
17054;BME280;8643;48.824;11.422;2023-07-20T05:50:08;96812.16;;;18.45;74.99
17054;BME280;8643;48.824;11.422;2023-07-20T05:52:37;96811.75;;;18.43;74.99
17054;BME280;8643;48.824;11.422;2023-07-20T05:55:07;96818.50;;;18.46;74.96
17054;BME280;8643;48.824;11.422;2023-07-20T05:57:36;96813.13;;;18.78;75.79
17054;BME280;8643;48.824;11.422;2023-07-20T06:00:10;96812.38;;;18.85;72.62
17054;BME280;8643;48.824;11.422;2023-07-20T06:02:41;96815.28;;;19.10;73.85
17054;BME280;8643;48.824;11.422;2023-07-20T06:05:12;96813.72;;;19.23;71.96
17054;BME280;8643;48.824;11.422;2023-07-20T06:07:40;96817.75;;;19.62;72.96
17054;BME280;8643;48.824;11.422;2023-07-20T06:10:09;96817.00;;;19.72;69.34
17054;BME280;8643;48.824;11.422;2023-07-20T06:12:37;96820.59;;;20.30;68.59
17054;BME280;8643;48.824;11.422;2023-07-20T06:15:24;96820.63;;;19.87;68.71
17054;BME280;8643;48.824;11.422;2023-07-20T06:17:54;96819.00;;;19.86;71.20
17054;BME280;8643;48.824;11.422;2023-07-20T06:20:26;96819.75;;;19.65;71.13
17054;BME280;8643;48.824;11.422;2023-07-20T06:22:57;96817.34;;;19.46;71.42
17054;BME280;8643;48.824;11.422;2023-07-20T06:25:25;96815.75;;;19.41;71.92
17054;BME280;8643;48.824;11.422;2023-07-20T06:27:55;96817.78;;;19.69;72.74
17054;BME280;8643;48.824;11.422;2023-07-20T06:30:24;96825.78;;;20.07;70.00
17054;BME280;8643;48.824;11.422;2023-07-20T06:32:53;96824.53;;;20.51;70.89
17054;BME280;8643;48.824;11.422;2023-07-20T06:35:21;96827.63;;;20.96;66.77
17054;BME280;8643;48.824;11.422;2023-07-20T06:37:52;96830.91;;;21.62;66.00
17054;BME280;8643;48.824;11.422;2023-07-20T06:40:21;96832.13;;;21.57;65.16
17054;BME280;8643;48.824;11.422;2023-07-20T06:42:53;96818.78;;;21.19;65.83
17054;BME280;8643;48.824;11.422;2023-07-20T06:45:24;96826.06;;;20.88;67.49
17054;BME280;8643;48.824;11.422;2023-07-20T06:47:53;96817.78;;;20.52;69.60
17054;BME280;8643;48.824;11.422;2023-07-20T06:50:21;96822.91;;;20.86;67.46
17054;BME280;8643;48.824;11.422;2023-07-20T06:52:55;96817.59;;;21.20;68.60
17054;BME280;8643;48.824;11.422;2023-07-20T06:55:25;96818.03;;;21.82;63.13
17054;BME280;8643;48.824;11.422;2023-07-20T06:57:55;96819.28;;;22.26;62.45
17054;BME280;8643;48.824;11.422;2023-07-20T07:00:25;96824.78;;;22.37;60.95
17054;BME280;8643;48.824;11.422;2023-07-20T07:02:54;96819.91;;;22.86;60.70
17054;BME280;8643;48.824;11.422;2023-07-20T07:05:23;96824.97;;;23.30;59.27
17054;BME280;8643;48.824;11.422;2023-07-20T07:08:03;96815.94;;;23.49;57.33
17054;BME280;8643;48.824;11.422;2023-07-20T07:10:32;96816.72;;;23.50;59.17
17054;BME280;8643;48.824;11.422;2023-07-20T07:13:01;96811.81;;;23.57;58.38
17054;BME280;8643;48.824;11.422;2023-07-20T07:15:33;96816.72;;;23.77;57.18
17054;BME280;8643;48.824;11.422;2023-07-20T07:18:01;96810.28;;;23.53;58.07
17054;BME280;8643;48.824;11.422;2023-07-20T07:20:30;96820.41;;;23.43;59.46
17054;BME280;8643;48.824;11.422;2023-07-20T07:23:01;96826.13;;;22.98;58.44
17054;BME280;8643;48.824;11.422;2023-07-20T07:25:30;96818.00;;;23.72;58.16
17054;BME280;8643;48.824;11.422;2023-07-20T07:27:59;96824.66;;;22.86;59.61
17054;BME280;8643;48.824;11.422;2023-07-20T07:30:28;96824.50;;;22.21;62.58
17054;BME280;8643;48.824;11.422;2023-07-20T07:33:00;96825.00;;;21.52;63.44
17054;BME280;8643;48.824;11.422;2023-07-20T07:35:29;96818.16;;;21.64;63.48
17054;BME280;8643;48.824;11.422;2023-07-20T07:37:58;96831.72;;;21.58;63.84
17054;BME280;8643;48.824;11.422;2023-07-20T07:40:48;96828.81;;;20.95;64.69
17054;BME280;8643;48.824;11.422;2023-07-20T07:43:16;96830.09;;;20.76;66.11
17054;BME280;8643;48.824;11.422;2023-07-20T07:45:45;96822.34;;;21.20;66.14
17054;BME280;8643;48.824;11.422;2023-07-20T07:48:14;96825.44;;;21.40;65.18
17054;BME280;8643;48.824;11.422;2023-07-20T07:50:43;96824.84;;;21.77;64.23
17054;BME280;8643;48.824;11.422;2023-07-20T07:53:11;96833.56;;;21.83;62.85
17054;BME280;8643;48.824;11.422;2023-07-20T07:55:40;96831.06;;;21.29;63.65
17054;BME280;8643;48.824;11.422;2023-07-20T07:58:10;96824.00;;;21.06;65.29
17054;BME280;8643;48.824;11.422;2023-07-20T08:00:39;96828.72;;;21.91;63.95
17054;BME280;8643;48.824;11.422;2023-07-20T08:03:09;96821.75;;;22.97;58.86
17054;BME280;8643;48.824;11.422;2023-07-20T08:05:37;96825.84;;;22.05;61.46
17054;BME280;8643;48.824;11.422;2023-07-20T08:08:06;96827.72;;;22.99;59.83
17054;BME280;8643;48.824;11.422;2023-07-20T08:10:36;96825.91;;;23.77;55.90
17054;BME280;8643;48.824;11.422;2023-07-20T08:13:05;96828.91;;;22.98;57.82
17054;BME280;8643;48.824;11.422;2023-07-20T08:15:35;96832.63;;;22.01;59.69
17054;BME280;8643;48.824;11.422;2023-07-20T08:18:04;96822.06;;;22.30;58.46
17054;BME280;8643;48.824;11.422;2023-07-20T08:20:33;96827.66;;;21.70;60.37
17054;BME280;8643;48.824;11.422;2023-07-20T08:23:03;96828.28;;;22.45;58.73
17054;BME280;8643;48.824;11.422;2023-07-20T08:25:31;96819.84;;;22.03;59.90
17054;BME280;8643;48.824;11.422;2023-07-20T08:28:00;96822.84;;;23.41;56.73
17054;BME280;8643;48.824;11.422;2023-07-20T08:30:41;96821.13;;;23.78;53.41
17054;BME280;8643;48.824;11.422;2023-07-20T08:33:13;96823.84;;;23.54;53.92
17054;BME280;8643;48.824;11.422;2023-07-20T08:35:43;96822.09;;;23.64;53.57
17054;BME280;8643;48.824;11.422;2023-07-20T08:38:12;96821.06;;;23.23;55.80
17054;BME280;8643;48.824;11.422;2023-07-20T08:40:42;96826.88;;;23.94;55.70
17054;BME280;8643;48.824;11.422;2023-07-20T08:43:12;96831.38;;;23.57;51.36
17054;BME280;8643;48.824;11.422;2023-07-20T08:45:45;96830.63;;;22.50;51.87
17054;BME280;8643;48.824;11.422;2023-07-20T08:48:17;96826.78;;;22.37;55.83
17054;BME280;8643;48.824;11.422;2023-07-20T08:50:49;96827.63;;;22.72;54.86
17054;BME280;8643;48.824;11.422;2023-07-20T08:53:20;96828.84;;;22.29;56.67
17054;BME280;8643;48.824;11.422;2023-07-20T08:55:51;96823.78;;;22.58;56.99
17054;BME280;8643;48.824;11.422;2023-07-20T08:58:21;96825.06;;;22.50;55.50
17054;BME280;8643;48.824;11.422;2023-07-20T09:00:55;96826.41;;;22.31;57.89
17054;BME280;8643;48.824;11.422;2023-07-20T09:03:26;96821.53;;;21.93;57.08
17054;BME280;8643;48.824;11.422;2023-07-20T09:05:55;96815.25;;;22.73;55.66
17054;BME280;8643;48.824;11.422;2023-07-20T09:08:25;96814.44;;;24.46;51.00
17054;BME280;8643;48.824;11.422;2023-07-20T09:10:54;96806.72;;;24.30;52.74
17054;BME280;8643;48.824;11.422;2023-07-20T09:13:24;96824.84;;;24.69;53.32
17054;BME280;8643;48.824;11.422;2023-07-20T09:15:58;96820.22;;;24.36;48.82
17054;BME280;8643;48.824;11.422;2023-07-20T09:18:28;96824.28;;;23.80;49.56
17054;BME280;8643;48.824;11.422;2023-07-20T09:21:03;96825.50;;;23.21;48.87
17054;BME280;8643;48.824;11.422;2023-07-20T09:23:33;96825.63;;;23.10;49.46
17054;BME280;8643;48.824;11.422;2023-07-20T09:26:10;96816.47;;;23.06;48.90
17054;BME280;8643;48.824;11.422;2023-07-20T09:28:43;96817.06;;;23.24;51.47
17054;BME280;8643;48.824;11.422;2023-07-20T09:31:20;96811.47;;;22.56;49.33
17054;BME280;8643;48.824;11.422;2023-07-20T09:33:51;96820.06;;;23.06;51.35
17054;BME280;8643;48.824;11.422;2023-07-20T09:36:26;96813.84;;;22.92;49.08
17054;BME280;8643;48.824;11.422;2023-07-20T09:38:59;96820.16;;;24.83;47.98
17054;BME280;8643;48.824;11.422;2023-07-20T09:41:39;96821.38;;;24.14;46.53
17054;BME280;8643;48.824;11.422;2023-07-20T09:44:14;96805.06;;;23.82;47.82
17054;BME280;8643;48.824;11.422;2023-07-20T09:46:48;96816.25;;;24.09;46.71
17054;BME280;8643;48.824;11.422;2023-07-20T09:49:21;96814.00;;;24.72;44.88
17054;BME280;8643;48.824;11.422;2023-07-20T09:51:55;96811.84;;;24.79;45.47
17054;BME280;8643;48.824;11.422;2023-07-20T09:54:24;96806.13;;;23.37;47.83
17054;BME280;8643;48.824;11.422;2023-07-20T09:56:56;96811.75;;;24.63;46.26
17054;BME280;8643;48.824;11.422;2023-07-20T09:59:25;96809.16;;;24.28;44.71
17054;BME280;8643;48.824;11.422;2023-07-20T10:01:58;96811.53;;;23.52;46.66
17054;BME280;8643;48.824;11.422;2023-07-20T10:04:29;96809.88;;;23.54;48.02
17054;BME280;8643;48.824;11.422;2023-07-20T10:07:03;96803.28;;;25.27;42.52
17054;BME280;8643;48.824;11.422;2023-07-20T10:09:35;96809.56;;;26.53;37.96
17054;BME280;8643;48.824;11.422;2023-07-20T10:12:09;96800.47;;;27.37;36.79
17054;BME280;8643;48.824;11.422;2023-07-20T10:14:54;96810.75;;;27.82;36.30
17054;BME280;8643;48.824;11.422;2023-07-20T10:17:30;96807.94;;;26.85;38.13
17054;BME280;8643;48.824;11.422;2023-07-20T10:20:02;96806.19;;;26.12;39.53
17054;BME280;8643;48.824;11.422;2023-07-20T10:22:36;96803.44;;;24.99;43.14
17054;BME280;8643;48.824;11.422;2023-07-20T10:25:09;96804.97;;;24.84;41.49
17054;BME280;8643;48.824;11.422;2023-07-20T10:27:39;96806.84;;;24.91;42.09
17054;BME280;8643;48.824;11.422;2023-07-20T10:30:08;96795.91;;;24.96;39.66
17054;BME280;8643;48.824;11.422;2023-07-20T10:32:40;96802.94;;;25.04;38.81
17054;BME280;8643;48.824;11.422;2023-07-20T10:35:14;96792.69;;;24.54;41.42
17054;BME280;8643;48.824;11.422;2023-07-20T10:37:54;96794.84;;;24.23;42.88
17054;BME280;8643;48.824;11.422;2023-07-20T10:40:34;96786.03;;;24.24;42.98
17054;BME280;8643;48.824;11.422;2023-07-20T10:43:05;96782.72;;;25.70;41.71
17054;BME280;8643;48.824;11.422;2023-07-20T10:45:37;96788.47;;;26.61;38.24
17054;BME280;8643;48.824;11.422;2023-07-20T10:48:17;96791.13;;;27.78;36.82
17054;BME280;8643;48.824;11.422;2023-07-20T10:51:11;96774.19;;;28.43;35.65
17054;BME280;8643;48.824;11.422;2023-07-20T10:53:41;96792.00;;;26.95;37.29
17054;BME280;8643;48.824;11.422;2023-07-20T10:56:12;96775.72;;;27.70;35.56
17054;BME280;8643;48.824;11.422;2023-07-20T10:58:42;96779.00;;;28.07;37.91
17054;BME280;8643;48.824;11.422;2023-07-20T11:01:15;96775.31;;;28.80;36.77
17054;BME280;8643;48.824;11.422;2023-07-20T11:03:50;96782.34;;;28.98;32.06
17054;BME280;8643;48.824;11.422;2023-07-20T11:06:31;96763.00;;;28.04;33.48
17054;BME280;8643;48.824;11.422;2023-07-20T11:09:08;96767.81;;;27.27;35.91
17054;BME280;8643;48.824;11.422;2023-07-20T11:11:40;96768.91;;;25.79;39.48
17054;BME280;8643;48.824;11.422;2023-07-20T11:14:20;96768.66;;;25.90;37.64
17054;BME280;8643;48.824;11.422;2023-07-20T11:16:51;96763.06;;;25.37;38.88
17054;BME280;8643;48.824;11.422;2023-07-20T11:19:23;96762.09;;;25.43;41.63
17054;BME280;8643;48.824;11.422;2023-07-20T11:21:56;96763.28;;;26.28;38.50
17054;BME280;8643;48.824;11.422;2023-07-20T11:24:31;96767.81;;;27.27;36.34
17054;BME280;8643;48.824;11.422;2023-07-20T11:27:00;96751.44;;;28.02;36.74
17054;BME280;8643;48.824;11.422;2023-07-20T11:29:29;96750.31;;;26.93;38.11
17054;BME280;8643;48.824;11.422;2023-07-20T11:32:01;96754.28;;;26.04;38.02
17054;BME280;8643;48.824;11.422;2023-07-20T11:34:35;96752.53;;;25.04;41.11
17054;BME280;8643;48.824;11.422;2023-07-20T11:37:05;96752.59;;;25.57;41.11
17054;BME280;8643;48.824;11.422;2023-07-20T11:39:36;96748.72;;;25.15;39.16
17054;BME280;8643;48.824;11.422;2023-07-20T11:42:05;96748.50;;;25.05;39.44
17054;BME280;8643;48.824;11.422;2023-07-20T11:44:35;96745.66;;;24.89;38.70
17054;BME280;8643;48.824;11.422;2023-07-20T11:47:08;96754.03;;;25.09;39.01
17054;BME280;8643;48.824;11.422;2023-07-20T11:49:40;96739.94;;;26.31;36.07
17054;BME280;8643;48.824;11.422;2023-07-20T11:52:11;96730.06;;;27.79;36.00
17054;BME280;8643;48.824;11.422;2023-07-20T11:54:43;96733.22;;;28.29;34.05
17054;BME280;8643;48.824;11.422;2023-07-20T11:57:20;96734.50;;;28.85;33.08
17054;BME280;8643;48.824;11.422;2023-07-20T11:59:55;96736.47;;;28.75;31.90
17054;BME280;8643;48.824;11.422;2023-07-20T12:02:27;96722.28;;;27.83;34.00
17054;BME280;8643;48.824;11.422;2023-07-20T12:04:58;96719.16;;;27.94;33.00
17054;BME280;8643;48.824;11.422;2023-07-20T12:07:28;96717.53;;;28.06;34.81
17054;BME280;8643;48.824;11.422;2023-07-20T12:10:04;96707.91;;;27.42;34.04
17054;BME280;8643;48.824;11.422;2023-07-20T12:12:33;96711.16;;;27.79;34.08
17054;BME280;8643;48.824;11.422;2023-07-20T12:15:19;96712.38;;;27.27;34.50
17054;BME280;8643;48.824;11.422;2023-07-20T12:17:51;96705.63;;;27.12;35.20
17054;BME280;8643;48.824;11.422;2023-07-20T12:20:30;96705.28;;;27.22;33.63
17054;BME280;8643;48.824;11.422;2023-07-20T12:23:02;96698.91;;;27.22;34.01
17054;BME280;8643;48.824;11.422;2023-07-20T12:25:40;96690.75;;;27.88;33.68
17054;BME280;8643;48.824;11.422;2023-07-20T12:28:09;96695.06;;;27.67;33.75
17054;BME280;8643;48.824;11.422;2023-07-20T12:30:39;96685.41;;;27.55;34.17
17054;BME280;8643;48.824;11.422;2023-07-20T12:33:08;96691.84;;;27.43;33.73
17054;BME280;8643;48.824;11.422;2023-07-20T12:35:38;96690.25;;;27.42;33.86
17054;BME280;8643;48.824;11.422;2023-07-20T12:38:07;96693.69;;;27.85;32.60
17054;BME280;8643;48.824;11.422;2023-07-20T12:40:36;96683.53;;;28.70;32.40
17054;BME280;8643;48.824;11.422;2023-07-20T12:43:04;96681.88;;;28.60;31.31
17054;BME280;8643;48.824;11.422;2023-07-20T12:45:33;96688.53;;;29.19;30.80
17054;BME280;8643;48.824;11.422;2023-07-20T12:48:04;96684.69;;;28.82;31.26
17054;BME280;8643;48.824;11.422;2023-07-20T12:50:32;96672.38;;;28.09;32.63
17054;BME280;8643;48.824;11.422;2023-07-20T12:53:02;96676.00;;;27.36;35.23
17054;BME280;8643;48.824;11.422;2023-07-20T12:55:32;96675.00;;;27.91;35.01
17054;BME280;8643;48.824;11.422;2023-07-20T12:58:00;96675.19;;;28.09;33.08
17054;BME280;8643;48.824;11.422;2023-07-20T13:00:29;96678.44;;;28.43;33.30
17054;BME280;8643;48.824;11.422;2023-07-20T13:02:58;96676.50;;;28.52;33.10
17054;BME280;8643;48.824;11.422;2023-07-20T13:05:29;96669.22;;;28.86;33.58
17054;BME280;8643;48.824;11.422;2023-07-20T13:08:03;96674.88;;;28.42;32.22
17054;BME280;8643;48.824;11.422;2023-07-20T13:10:35;96672.19;;;28.26;35.64
17054;BME280;8643;48.824;11.422;2023-07-20T13:13:05;96668.63;;;27.13;32.81
17054;BME280;8643;48.824;11.422;2023-07-20T13:15:44;96663.75;;;26.33;35.01
17054;BME280;8643;48.824;11.422;2023-07-20T13:18:13;96661.16;;;26.26;35.57
17054;BME280;8643;48.824;11.422;2023-07-20T13:20:42;96668.97;;;26.18;35.69